createdAt,value
2018-09-04T00:02:21.759Z,20.89
2018-09-04T00:04:50.736Z,21.00
2018-09-04T00:07:21.430Z,20.57
2018-09-04T00:09:50.888Z,20.77
2018-09-04T00:12:20.155Z,20.57
2018-09-04T00:14:49.245Z,20.76
2018-09-04T00:17:18.504Z,20.66
2018-09-04T00:19:47.594Z,20.76
2018-09-04T00:22:16.514Z,20.67
2018-09-04T00:24:45.461Z,20.74
2018-09-04T00:27:14.441Z,20.69
2018-09-04T00:29:43.321Z,20.53
2018-09-04T00:32:12.279Z,20.75
2018-09-04T00:34:41.256Z,20.77
2018-09-04T00:37:10.365Z,20.62
2018-09-04T00:39:39.371Z,20.46
2018-09-04T00:42:08.741Z,20.73
2018-09-04T00:44:37.730Z,20.79
2018-09-04T00:47:06.641Z,20.34
2018-09-04T00:49:35.647Z,20.19
2018-09-04T00:52:04.726Z,20.39
2018-09-04T00:54:33.724Z,20.43
2018-09-04T00:57:02.705Z,20.48
2018-09-04T00:59:31.675Z,20.39
2018-09-04T01:02:00.708Z,20.55
2018-09-04T01:04:29.714Z,20.38
2018-09-04T01:06:58.848Z,20.18
2018-09-04T01:09:27.936Z,20.25
2018-09-04T01:11:56.953Z,20.37
2018-09-04T01:14:25.978Z,20.19
2018-09-04T01:16:54.922Z,20.35
2018-09-04T01:19:23.962Z,20.28
2018-09-04T01:21:52.941Z,20.32
2018-09-04T01:24:21.937Z,20.36
2018-09-04T01:26:50.927Z,20.38
2018-09-04T01:29:20.007Z,20.23
2018-09-04T01:31:48.971Z,20.07
2018-09-04T01:34:18.016Z,20.17
2018-09-04T01:36:47.116Z,19.97
2018-09-04T01:39:16.047Z,20.16
2018-09-04T01:41:45.010Z,20.12
2018-09-04T01:44:14.005Z,20.08
2018-09-04T01:46:43.194Z,20.10
2018-09-04T01:49:12.654Z,20.15
2018-09-04T01:51:41.617Z,20.07
2018-09-04T01:54:10.638Z,20.08
2018-09-04T01:56:39.661Z,20.07
2018-09-04T01:59:08.576Z,19.83
2018-09-04T02:01:37.573Z,20.09
2018-09-04T02:04:06.747Z,19.77
2018-09-04T02:06:35.751Z,19.96
2018-09-04T02:09:05.721Z,19.91
2018-09-04T02:11:34.622Z,20.00
2018-09-04T02:14:03.936Z,19.93
2018-09-04T02:16:32.863Z,19.96
2018-09-04T02:19:01.833Z,19.99
2018-09-04T02:21:30.877Z,19.93
2018-09-04T02:23:59.853Z,19.79
2018-09-04T02:26:29.328Z,19.71
2018-09-04T02:28:58.276Z,19.79
2018-09-04T02:31:27.315Z,19.80
2018-09-04T02:33:56.252Z,19.80
2018-09-04T02:36:25.208Z,19.72
2018-09-04T02:38:54.113Z,19.66
2018-09-04T02:41:23.117Z,19.74
2018-09-04T02:43:52.026Z,19.43
2018-09-04T02:46:21.029Z,19.50
2018-09-04T02:48:50.072Z,19.29
2018-09-04T02:51:19.301Z,19.48
2018-09-04T02:53:48.230Z,19.66
2018-09-04T02:56:17.144Z,19.47
2018-09-04T02:58:46.128Z,19.49
2018-09-04T03:01:15.280Z,19.66
2018-09-04T03:03:44.367Z,19.65
2018-09-04T03:06:13.358Z,19.41
2018-09-04T03:08:42.323Z,19.16
2018-09-04T03:11:11.581Z,19.30
2018-09-04T03:13:40.574Z,19.39
2018-09-04T03:16:09.512Z,19.37
2018-09-04T03:18:38.488Z,19.32
2018-09-04T03:21:07.449Z,19.26
2018-09-04T03:23:36.432Z,19.15
2018-09-04T03:26:05.367Z,19.44
2018-09-04T03:28:34.384Z,19.40
2018-09-04T03:31:03.443Z,19.41
2018-09-04T03:33:34.287Z,19.35
2018-09-04T03:36:03.245Z,19.23
2018-09-04T03:38:32.161Z,19.32
2018-09-04T03:41:01.232Z,19.10
2018-09-04T03:43:30.207Z,19.21
2018-09-04T03:45:59.121Z,19.15
2018-09-04T03:48:28.101Z,19.11
2018-09-04T03:50:56.999Z,19.11
2018-09-04T03:53:25.978Z,19.04
2018-09-04T03:55:54.938Z,19.22
2018-09-04T03:58:23.886Z,19.19
2018-09-04T04:00:52.869Z,19.22
2018-09-04T04:09:17.088Z,19.03
2018-09-04T04:11:46.067Z,19.10
2018-09-04T04:14:14.990Z,18.91
2018-09-04T04:16:43.967Z,18.87
2018-09-04T04:19:12.901Z,19.05
2018-09-04T04:21:42.007Z,18.99
2018-09-04T04:24:11.187Z,19.10
2018-09-04T04:26:40.091Z,18.95
2018-09-04T04:29:08.993Z,19.16
2018-09-04T04:31:38.082Z,19.15
2018-09-04T04:34:07.163Z,19.22
2018-09-04T04:36:37.145Z,19.22
2018-09-04T04:39:08.080Z,19.05
2018-09-04T04:41:37.043Z,19.17
2018-09-04T04:44:06.104Z,19.32
2018-09-04T04:46:35.189Z,19.19
2018-09-04T04:49:04.250Z,19.28
2018-09-04T04:51:33.166Z,19.12
2018-09-04T04:54:02.228Z,19.01
2018-09-04T04:56:31.219Z,19.07
2018-09-04T04:59:00.160Z,19.23
2018-09-04T05:01:29.108Z,18.97
2018-09-04T05:04:02.069Z,18.93
2018-09-04T05:06:31.020Z,18.99
2018-09-04T05:09:00.253Z,18.89
2018-09-04T05:11:29.216Z,18.93
2018-09-04T05:13:58.146Z,18.81
2018-09-04T05:16:27.099Z,19.22
2018-09-04T05:18:56.009Z,18.92
2018-09-04T05:21:24.992Z,18.98
2018-09-04T05:23:53.892Z,19.06
2018-09-04T05:26:22.800Z,18.98
2018-09-04T05:28:51.762Z,18.87
2018-09-04T05:31:20.722Z,18.81
2018-09-04T05:33:49.704Z,19.06
2018-09-04T05:36:18.660Z,18.86
2018-09-04T05:38:47.637Z,18.87
2018-09-04T05:41:16.582Z,19.03
2018-09-04T05:43:48.436Z,19.00
2018-09-04T05:46:22.053Z,18.82
2018-09-04T05:48:51.000Z,19.07
2018-09-04T05:51:19.926Z,19.15
2018-09-04T05:53:48.897Z,19.10
2018-09-04T05:56:17.859Z,19.15
2018-09-04T05:58:46.807Z,19.25
2018-09-04T06:01:16.950Z,19.04
2018-09-04T06:03:45.965Z,19.21
2018-09-04T06:06:15.181Z,18.85
2018-09-04T06:08:44.084Z,18.90
2018-09-04T06:11:13.040Z,18.77
2018-09-04T06:13:41.993Z,19.09
2018-09-04T06:16:11.250Z,19.14
2018-09-04T06:18:40.188Z,19.13
2018-09-04T06:21:09.102Z,19.02
2018-09-04T06:23:38.061Z,18.99
2018-09-04T06:26:06.999Z,18.84
2018-09-04T06:28:36.254Z,19.00
2018-09-04T06:31:05.289Z,19.11
2018-09-04T06:33:34.205Z,18.94
2018-09-04T06:36:03.163Z,18.87
2018-09-04T06:38:32.255Z,19.15
2018-09-04T06:41:01.170Z,18.88
2018-09-04T06:43:30.115Z,19.03
2018-09-04T06:45:59.411Z,19.04
2018-09-04T06:48:28.325Z,19.08
2018-09-04T06:50:57.290Z,18.97
2018-09-04T06:53:26.318Z,19.13
2018-09-04T06:55:55.227Z,18.88
2018-09-04T06:58:24.151Z,18.67
2018-09-04T07:00:53.331Z,18.95
2018-09-04T07:03:22.280Z,18.73
2018-09-04T07:05:51.411Z,18.75
2018-09-04T07:08:20.457Z,18.98
2018-09-04T07:10:49.389Z,18.67
2018-09-04T07:13:18.339Z,18.90
2018-09-04T07:15:47.245Z,18.92
2018-09-04T07:18:16.535Z,18.67
2018-09-04T07:20:45.444Z,19.00
2018-09-04T07:23:14.398Z,18.96
2018-09-04T07:25:43.364Z,19.12
2018-09-04T07:28:12.266Z,19.09
2018-09-04T07:30:41.224Z,19.04
2018-09-04T07:33:10.405Z,19.11
2018-09-04T07:35:39.648Z,19.03
2018-09-04T07:38:08.646Z,19.03
2018-09-04T07:40:37.559Z,19.29
2018-09-04T07:43:06.531Z,19.20
2018-09-04T07:45:35.449Z,19.50
2018-09-04T07:48:04.756Z,19.34
2018-09-04T07:50:33.720Z,19.22
2018-09-04T07:53:02.690Z,19.34
2018-09-04T07:55:31.693Z,19.32
2018-09-04T07:58:00.613Z,19.08
2018-09-04T08:00:30.203Z,19.09
2018-09-04T08:02:59.127Z,18.92
2018-09-04T08:05:28.080Z,18.94
2018-09-04T08:07:57.031Z,18.97
2018-09-04T08:10:25.964Z,19.23
2018-09-04T08:12:54.971Z,19.24
2018-09-04T08:15:23.896Z,19.35
2018-09-04T08:17:52.815Z,19.30
2018-09-04T08:20:22.165Z,19.24
2018-09-04T08:22:53.203Z,19.37
2018-09-04T08:25:22.531Z,19.07
2018-09-04T08:27:51.532Z,19.19
2018-09-04T08:30:20.468Z,19.39
2018-09-04T08:32:49.622Z,19.28
2018-09-04T08:35:18.631Z,19.16
2018-09-04T08:37:47.736Z,19.33
2018-09-04T08:40:16.690Z,19.35
2018-09-04T08:42:45.666Z,19.34
2018-09-04T08:45:14.713Z,19.11
2018-09-04T08:47:43.662Z,19.06
2018-09-04T08:50:12.577Z,19.33
2018-09-04T08:52:41.551Z,19.36
2018-09-04T08:55:10.527Z,19.23
2018-09-04T08:57:39.774Z,19.23
2018-09-04T09:00:08.707Z,19.11
2018-09-04T09:02:37.700Z,19.20
2018-09-04T09:05:06.740Z,19.08
2018-09-04T09:07:35.751Z,19.37
2018-09-04T09:10:04.761Z,19.58
2018-09-04T09:12:33.654Z,19.25
2018-09-04T09:15:02.629Z,19.38
2018-09-04T09:17:31.588Z,19.46
2018-09-04T09:20:00.545Z,19.32
2018-09-04T09:22:29.526Z,19.50
2018-09-04T09:24:58.442Z,19.67
2018-09-04T09:27:27.408Z,19.68
2018-09-04T09:29:56.361Z,19.57
2018-09-04T09:32:25.263Z,19.60
2018-09-04T09:34:54.194Z,19.85
2018-09-04T09:37:23.264Z,19.80
2018-09-04T09:39:52.269Z,20.16
2018-09-04T09:42:21.263Z,19.78
2018-09-04T09:44:50.499Z,19.63
2018-09-04T09:47:19.411Z,19.72
2018-09-04T09:49:48.325Z,19.82
2018-09-04T09:52:17.319Z,20.17
2018-09-04T10:00:41.822Z,20.00
2018-09-04T10:03:16.168Z,20.06
2018-09-04T10:05:45.112Z,20.10
2018-09-04T10:08:14.073Z,19.89
2018-09-04T10:10:43.039Z,20.18
2018-09-04T10:13:11.969Z,20.14
2018-09-04T10:15:41.012Z,20.38
2018-09-04T10:18:09.915Z,20.44
2018-09-04T10:20:38.879Z,20.59
2018-09-04T10:23:07.904Z,20.17
2018-09-04T10:25:36.839Z,20.05
2018-09-04T10:28:05.800Z,20.13
2018-09-04T10:30:34.904Z,19.97
2018-09-04T10:33:03.935Z,20.39
2018-09-04T10:35:32.935Z,20.40
2018-09-04T10:38:02.278Z,20.20
2018-09-04T10:40:36.531Z,20.31
2018-09-04T10:43:05.435Z,20.33
2018-09-04T10:45:39.680Z,20.40
2018-09-04T10:48:12.797Z,20.33
2018-09-04T10:50:41.991Z,20.27
2018-09-04T10:53:10.905Z,20.51
2018-09-04T10:55:39.821Z,20.40
2018-09-04T10:58:09.120Z,20.32
2018-09-04T11:00:38.399Z,20.65
2018-09-04T11:03:07.312Z,20.61
2018-09-04T11:05:36.304Z,20.42
2018-09-04T11:08:05.241Z,20.57
2018-09-04T11:10:34.190Z,20.55
2018-09-04T11:13:03.172Z,20.73
2018-09-04T11:15:32.133Z,20.92
2018-09-04T11:18:01.166Z,20.97
2018-09-04T11:20:30.491Z,20.89
2018-09-04T11:22:59.506Z,20.85
2018-09-04T11:25:28.490Z,21.01
2018-09-04T11:27:57.444Z,20.92
2018-09-04T11:30:26.430Z,21.28
2018-09-04T11:32:55.426Z,21.18
2018-09-04T11:35:24.402Z,21.33
2018-09-04T11:37:53.328Z,21.24
2018-09-04T11:40:22.294Z,21.42
2018-09-04T11:42:51.299Z,21.33
2018-09-04T11:45:20.240Z,21.28
2018-09-04T11:47:49.329Z,21.32
2018-09-04T11:50:18.302Z,21.39
2018-09-04T11:52:47.536Z,21.36
2018-09-04T11:55:16.500Z,21.37
2018-09-04T11:57:46.056Z,21.51
2018-09-04T12:00:22.388Z,21.57
2018-09-04T12:02:51.348Z,21.71
2018-09-04T12:05:20.362Z,21.65
2018-09-04T12:07:49.476Z,21.84
2018-09-04T12:10:18.445Z,21.93
2018-09-04T12:12:47.600Z,21.93
2018-09-04T12:15:16.539Z,21.92
2018-09-04T12:17:45.503Z,21.83
2018-09-04T12:20:49.987Z,21.93
2018-09-04T12:23:18.882Z,21.96
2018-09-04T12:25:49.272Z,22.07
2018-09-04T12:30:46.541Z,22.05
2018-09-04T12:33:15.759Z,22.22
2018-09-04T12:35:44.734Z,22.23
2018-09-04T12:38:16.110Z,22.47
2018-09-04T12:40:45.794Z,22.46
2018-09-04T12:43:14.721Z,22.48
2018-09-04T12:45:50.829Z,22.66
2018-09-04T12:48:25.398Z,22.70
2018-09-04T12:50:55.423Z,22.88
2018-09-04T12:53:24.925Z,22.65
2018-09-04T12:55:53.974Z,22.88
2018-09-04T12:58:22.865Z,22.81
2018-09-04T13:00:53.026Z,22.87
2018-09-04T13:03:23.323Z,22.86
2018-09-04T13:05:59.018Z,23.02
2018-09-04T13:08:29.452Z,23.13
2018-09-04T13:10:58.371Z,23.11
2018-09-04T13:13:27.331Z,23.20
2018-09-04T13:15:57.836Z,23.19
2018-09-04T13:18:27.681Z,23.22
2018-09-04T13:21:01.282Z,23.22
2018-09-04T13:23:31.538Z,23.08
2018-09-04T13:26:00.676Z,23.06
2018-09-04T13:28:30.316Z,23.15
2018-09-04T13:30:59.585Z,23.17
2018-09-04T13:33:28.488Z,23.23
2018-09-04T13:35:57.458Z,23.28
2018-09-04T13:38:26.409Z,23.25
2018-09-04T13:41:00.774Z,23.46
2018-09-04T13:43:29.743Z,23.55
2018-09-04T13:45:58.659Z,23.33
2018-09-04T13:48:29.661Z,23.44
2018-09-04T13:50:58.914Z,23.43
2018-09-04T13:53:28.527Z,23.44
2018-09-04T13:55:58.310Z,23.47
2018-09-04T13:58:27.533Z,23.46
2018-09-04T14:00:56.479Z,23.57
2018-09-04T14:03:25.463Z,23.76
2018-09-04T14:05:54.389Z,23.61
2018-09-04T14:08:23.454Z,23.69
2018-09-04T14:10:52.359Z,23.75
2018-09-04T14:13:21.379Z,23.78
2018-09-04T14:15:51.785Z,24.01
2018-09-04T14:18:20.738Z,23.85
2018-09-04T14:20:49.711Z,23.95
2018-09-04T14:23:18.670Z,23.81
2018-09-04T14:25:47.897Z,23.78
2018-09-04T14:28:40.969Z,23.99
2018-09-04T14:30:45.912Z,24.00
2018-09-04T14:33:14.795Z,23.90
2018-09-04T14:35:43.720Z,24.06
2018-09-04T14:38:12.695Z,24.12
2018-09-04T14:40:41.652Z,24.06
2018-09-04T14:43:10.588Z,24.13
2018-09-04T14:45:40.534Z,24.15
2018-09-04T14:48:09.430Z,24.21
2018-09-04T14:50:38.513Z,24.37
2018-09-04T14:53:07.604Z,24.39
2018-09-04T14:55:36.552Z,24.31
2018-09-04T14:58:05.743Z,24.43
2018-09-04T15:00:34.758Z,24.45
2018-09-04T15:03:03.805Z,24.58
2018-09-04T15:05:32.918Z,24.43
2018-09-04T15:08:01.889Z,24.36
2018-09-04T15:10:30.858Z,24.56
2018-09-04T15:12:59.770Z,24.48
2018-09-04T15:15:28.733Z,24.52
2018-09-04T15:17:57.685Z,24.49
2018-09-04T15:20:26.629Z,24.41
2018-09-04T15:22:55.592Z,24.59
2018-09-04T15:25:24.580Z,24.56
2018-09-04T15:27:53.469Z,24.49
2018-09-04T15:30:23.590Z,24.62
2018-09-04T15:32:52.532Z,24.61
2018-09-04T15:35:21.467Z,24.74
2018-09-04T15:37:50.430Z,24.54
2018-09-04T15:40:19.371Z,24.46
2018-09-04T15:42:48.466Z,24.56
2018-09-04T15:45:17.440Z,24.58
2018-09-04T15:47:46.398Z,24.51
2018-09-04T15:50:15.331Z,24.63
2018-09-04T15:52:44.336Z,24.67
2018-09-04T15:55:13.243Z,24.57
2018-09-04T15:57:42.192Z,24.63
2018-09-04T16:00:11.088Z,24.71
2018-09-04T16:02:40.067Z,24.75
2018-09-04T16:05:09.058Z,24.66
2018-09-04T16:07:38.074Z,24.75
2018-09-04T16:10:07.335Z,24.69
2018-09-04T16:12:36.689Z,24.55
2018-09-04T16:15:05.845Z,24.58
2018-09-04T16:17:35.094Z,24.69
2018-09-04T16:20:04.228Z,24.62
2018-09-04T16:22:33.299Z,24.59
2018-09-04T16:25:02.356Z,24.55
2018-09-04T16:27:31.463Z,24.73
2018-09-04T16:30:00.411Z,24.53
2018-09-04T16:32:29.502Z,24.67
2018-09-04T16:34:58.572Z,24.56
2018-09-04T16:37:27.535Z,24.45
2018-09-04T16:39:56.512Z,24.42
2018-09-04T16:42:25.495Z,24.22
2018-09-04T16:44:54.521Z,24.26
2018-09-04T16:47:23.618Z,24.10
2018-09-04T16:49:52.599Z,24.26
2018-09-04T16:52:21.874Z,24.19
2018-09-04T16:54:50.861Z,24.20
2018-09-04T16:57:19.958Z,24.01
2018-09-04T16:59:48.922Z,24.07
2018-09-04T17:02:17.947Z,23.89
2018-09-04T17:04:46.884Z,23.90
2018-09-04T17:07:15.819Z,23.83
2018-09-04T17:09:44.829Z,23.88
2018-09-04T17:12:13.878Z,23.78
2018-09-04T17:14:43.198Z,23.67
2018-09-04T17:17:12.187Z,23.63
2018-09-04T17:19:41.189Z,23.50
2018-09-04T17:22:10.891Z,23.73
2018-09-04T17:24:39.884Z,23.67
2018-09-04T17:27:08.919Z,23.59
2018-09-04T17:29:37.959Z,23.56
2018-09-04T17:32:12.123Z,23.46
2018-09-04T17:34:41.075Z,23.60
2018-09-04T17:37:10.031Z,23.57
2018-09-04T17:39:39.068Z,23.46
2018-09-04T17:42:08.068Z,23.44
2018-09-04T17:44:37.110Z,23.45
2018-09-04T17:47:06.319Z,23.49
2018-09-04T17:49:40.269Z,23.28
2018-09-04T17:52:09.203Z,23.30
2018-09-04T17:54:38.267Z,23.07
2018-09-04T17:57:07.356Z,23.11
2018-09-04T17:59:36.336Z,23.15
2018-09-04T18:02:05.383Z,23.21
2018-09-04T18:04:34.377Z,23.28
2018-09-04T18:07:03.392Z,22.94
2018-09-04T18:09:32.393Z,22.82
2018-09-04T18:12:01.349Z,22.80
2018-09-04T18:14:30.325Z,22.68
2018-09-04T18:16:59.373Z,22.93
2018-09-04T18:19:28.381Z,22.92
2018-09-04T18:21:57.480Z,22.88
2018-09-04T18:24:26.417Z,22.91
2018-09-04T18:26:55.445Z,22.86
2018-09-04T18:29:24.387Z,22.81
2018-09-04T18:31:53.446Z,22.73
2018-09-04T18:34:22.859Z,22.62
2018-09-04T18:36:51.841Z,22.49
2018-09-04T18:39:20.783Z,22.35
2018-09-04T18:41:49.825Z,22.50
2018-09-04T18:44:18.816Z,22.60
2018-09-04T18:46:47.777Z,22.58
2018-09-04T18:49:16.796Z,22.60
2018-09-04T18:51:46.103Z,22.64
2018-09-04T18:54:15.101Z,22.41
2018-09-04T18:56:44.032Z,22.24
2018-09-04T18:59:13.464Z,22.32
2018-09-04T19:01:42.376Z,22.29
2018-09-04T19:04:12.192Z,22.20
2018-09-04T19:06:41.187Z,22.00
2018-09-04T19:09:10.778Z,22.20
2018-09-04T19:11:39.766Z,22.03
2018-09-04T19:14:08.809Z,22.10
2018-09-04T19:16:37.765Z,22.00
2018-09-04T19:19:07.078Z,21.93
2018-09-04T19:21:36.035Z,21.65
2018-09-04T19:24:05.019Z,21.94
2018-09-04T19:26:34.219Z,21.79
2018-09-04T19:29:03.763Z,21.71
2018-09-04T19:31:32.853Z,21.88
2018-09-04T19:34:01.863Z,21.71
2018-09-04T19:36:30.821Z,21.59
2018-09-04T19:39:00.312Z,21.78
2018-09-04T19:41:29.207Z,21.25
2018-09-04T19:43:58.298Z,21.62
2018-09-04T19:46:27.327Z,21.53
2018-09-04T19:48:56.255Z,21.58
2018-09-04T19:51:25.347Z,21.48
2018-09-04T19:53:55.070Z,21.42
2018-09-04T19:56:24.003Z,21.25
2018-09-04T19:58:53.015Z,21.46
2018-09-04T20:01:21.953Z,21.55
2018-09-04T20:03:50.953Z,21.41
2018-09-04T20:06:19.864Z,21.49
2018-09-04T20:08:48.794Z,21.41
2018-09-04T20:11:18.086Z,21.35
2018-09-04T20:13:47.145Z,21.35
2018-09-04T20:16:16.168Z,21.10
2018-09-04T20:18:45.208Z,20.91
2018-09-04T20:21:14.230Z,21.02
2018-09-04T20:23:43.222Z,21.17
2018-09-04T20:26:12.122Z,20.87
2018-09-04T20:28:41.138Z,20.93
2018-09-04T20:31:10.140Z,20.89
2018-09-04T20:33:39.173Z,20.86
2018-09-04T20:36:08.184Z,20.98
2018-09-04T20:38:37.382Z,20.81
2018-09-04T20:41:06.354Z,20.69
2018-09-04T20:43:35.295Z,20.90
2018-09-04T20:46:04.245Z,20.39
2018-09-04T20:48:33.144Z,20.61
2018-09-04T20:51:02.102Z,20.65
2018-09-04T20:53:31.229Z,20.83
2018-09-04T20:56:00.123Z,20.59
2018-09-04T20:58:40.289Z,20.70
2018-09-04T21:01:20.547Z,20.37
2018-09-04T21:04:00.810Z,20.49
2018-09-04T21:06:41.501Z,20.62
2018-09-04T21:09:17.592Z,20.58
2018-09-04T21:11:46.578Z,20.61
2018-09-04T21:14:15.566Z,20.17
2018-09-04T21:16:44.640Z,20.01
2018-09-04T21:19:13.564Z,20.31
2018-09-04T21:21:42.514Z,20.25
2018-09-04T21:24:11.522Z,20.23
2018-09-04T21:26:40.662Z,20.31
2018-09-04T21:29:09.858Z,20.32
2018-09-04T21:31:38.792Z,20.12
2018-09-04T21:34:07.728Z,20.32
2018-09-04T21:36:36.997Z,20.32
2018-09-04T21:39:07.257Z,20.27
2018-09-04T21:41:36.274Z,20.30
2018-09-04T21:44:05.376Z,20.33
2018-09-04T21:46:34.476Z,20.16
2018-09-04T21:49:03.544Z,20.10
2018-09-04T21:51:32.487Z,20.13
2018-09-04T21:54:01.447Z,20.09
2018-09-04T21:56:30.426Z,19.94
2018-09-04T21:58:59.796Z,19.87
2018-09-04T22:01:28.718Z,19.93
2018-09-04T22:03:57.645Z,19.94
2018-09-04T22:06:26.635Z,19.72
2018-09-04T22:08:55.554Z,20.02
2018-09-04T22:11:24.557Z,20.07
2018-09-04T22:13:53.525Z,20.04
2018-09-04T22:16:22.523Z,19.99
2018-09-04T22:18:51.481Z,20.02
2018-09-04T22:21:20.465Z,19.89
2018-09-04T22:23:52.609Z,20.00
2018-09-04T22:26:21.794Z,19.98
2018-09-04T22:28:51.057Z,19.77
2018-09-04T22:31:20.240Z,19.87
2018-09-04T22:34:20.300Z,19.50
2018-09-04T22:36:49.272Z,19.70
2018-09-04T22:39:18.366Z,19.56
2018-09-04T22:41:47.280Z,19.63
2018-09-04T22:44:16.313Z,19.49
2018-09-04T22:46:45.460Z,19.43
2018-09-04T22:49:14.585Z,19.31
2018-09-04T22:51:43.511Z,19.39
2018-09-04T22:54:12.516Z,19.40
2018-09-04T22:56:41.725Z,19.32
2018-09-04T22:59:10.755Z,19.47
2018-09-04T23:01:39.752Z,19.28
2018-09-04T23:04:08.747Z,19.37
2018-09-04T23:06:37.717Z,19.43
2018-09-04T23:09:07.952Z,19.31
2018-09-04T23:11:36.887Z,19.23
2018-09-04T23:14:05.815Z,19.29
2018-09-04T23:16:35.032Z,19.08
2018-09-04T23:19:04.106Z,19.29
2018-09-04T23:21:33.082Z,19.13
2018-09-04T23:24:02.457Z,18.98
2018-09-04T23:26:31.430Z,19.04
2018-09-04T23:29:00.333Z,18.99
2018-09-04T23:31:29.325Z,18.95
2018-09-04T23:33:58.326Z,18.83
2018-09-04T23:36:27.530Z,18.94
2018-09-04T23:38:56.457Z,18.95
2018-09-04T23:41:25.391Z,18.71
2018-09-04T23:43:54.338Z,18.85
2018-09-04T23:46:23.436Z,18.77
2018-09-04T23:48:52.534Z,18.85
2018-09-04T23:51:21.485Z,18.94
2018-09-04T23:53:50.888Z,18.86
2018-09-04T23:56:19.862Z,18.97
2018-09-04T23:58:48.784Z,18.91
